Fascination — C6FM9 — position and weather

sailwx.info

Track history (hours):
 
Tides and Currents Weather Stations Pressure Air Temp Water Temp Dewpoint Dewpoint Depression Visibility Wind Speed Wind Dir Waves Ship Positions

Fascination

Operator: Carnival Cruise Lines

Last reported at 2019-Apr-24 02:51 UTC. Time now 2019-Apr-24 22:26 UTC.
Position N 14°10' W 060°37'.

Type: Ship. MMSI: 309682000.

Date/timePositionNaut miles runAvg speedWind from/ knotsBaromVisibWave heightAir tempDewpointWater temp
2019-Apr-24 02:51N 14°10' W 060°37'3 9.4
2019-Apr-24 02:30N 14°12' W 060°40'510.0
2019-Apr-24 02:00N 14°13' W 060°45'5 9.4
2019-Apr-24 01:31N 14°13' W 060°50'5 9.7
2019-Apr-24 01:01N 14°13' W 060°55'5 9.7
2019-Apr-24 00:31N 14°13' W 060°60'5 9.9
2019-Apr-24 00:00N 14°13' W 061°05'510.5
2019-Apr-23 23:31N 14°14' W 061°10'610.2
2019-Apr-23 22:55N 14°16' W 061°16'511.0
2019-Apr-23 22:30N 14°20' W 061°19'611.2
2019-Apr-23 21:57N 14°24' W 061°23'711.3
2019-Apr-23 21:20N 14°30' W 061°28'411.0
2019-Apr-23 21:01N 14°32' W 061°30'510.9
2019-Apr-23 20:31N 14°37' W 061°34'610.9
2019-Apr-23 19:58N 14°41' W 061°38'810.9
2019-Apr-23 19:17N 14°47' W 061°43'829.1
2019-Apr-23 19:00N 14°42' W 061°36'17014.5 170 / 101014.0 27.024.124.0
2019-Apr-23 07:14N 16°51' W 063°32'314.3
2019-Apr-23 07:00N 16°48' W 063°30'5112.7 080 / 151010.010.8 26.023.125.0
2019-Apr-23 03:00N 17°30' W 064°00'4514.3 090 / 151013.010.8 25.022.023.0
2019-Apr-22 23:51N 18°03' W 064°32'512.2
2019-Apr-22 23:28N 18°05' W 064°36'612.8
2019-Apr-22 23:00N 18°08' W 064°42'612.7
2019-Apr-22 22:30N 18°10' W 064°48'612.4
2019-Apr-22 22:00N 18°13' W 064°54'6341.4
2019-Apr-22 22:00N 18°12' W 064°48'1020.7 110 / 121012.010.8 25.023.526.0
2019-Apr-22 21:30N 18°19' W 064°56'1 1.8
2019-Apr-22 20:57N 18°20' W 064°55'0 0.0
2019-Apr-22 20:27N 18°20' W 064°55'0 0.0
2019-Apr-22 19:57N 18°20' W 064°55'0 0.0
2019-Apr-22 19:27N 18°20' W 064°55'0 0.0
2019-Apr-22 18:56N 18°20' W 064°55'0 0.0
2019-Apr-22 18:26N 18°20' W 064°55'0 0.0
2019-Apr-22 17:56N 18°20' W 064°55'0 0.0
2019-Apr-22 17:20N 18°20' W 064°55'0 0.0
2019-Apr-22 16:55N 18°20' W 064°55'0 0.0
2019-Apr-22 16:19N 18°20' W 064°55'0 0.0
2019-Apr-22 15:55N 18°20' W 064°55'0 0.0
2019-Apr-22 15:25N 18°20' W 064°55'0 0.0
2019-Apr-22 14:55N 18°20' W 064°55'0 0.0
2019-Apr-22 14:18N 18°20' W 064°55'0 0.0
2019-Apr-22 14:00N 18°20' W 064°55'0 0.0
2019-Apr-22 13:12N 18°20' W 064°55'0 0.0
2019-Apr-22 13:00N 18°20' W 064°55'0 0.0
2019-Apr-22 12:24N 18°20' W 064°55'0 0.0
2019-Apr-22 11:53N 18°20' W 064°55'0 0.0
2019-Apr-22 11:29N 18°20' W 064°55'0 0.0
2019-Apr-22 10:59N 18°20' W 064°55'0 0.7
2019-Apr-22 10:30N 18°20' W 064°56'4 7.1
2019-Apr-22 10:00N 18°16' W 064°57'5 9.3
2019-Apr-22 09:30N 18°17' W 065°02'5 9.7
2019-Apr-22 09:00N 18°19' W 065°07'5 9.3
2019-Apr-22 08:30N 18°22' W 065°10'510.3
2019-Apr-22 08:00N 18°26' W 065°12'510.4
2019-Apr-22 07:30N 18°31' W 065°13'510.5
2019-Apr-22 07:00N 18°36' W 065°16'16716274.9
2019-Apr-22 07:00N 18°36' W 068°12'162335.7 090 / 201016.010.8 26.024.625.0
2019-Apr-22 06:30N 18°38' W 065°21'510.6
2019-Apr-22 06:00N 18°39' W 065°26'510.6
2019-Apr-22 05:30N 18°40' W 065°32'610.9
2019-Apr-22 05:00N 18°41' W 065°37'510.7
2019-Apr-22 04:30N 18°41' W 065°43'510.4
2019-Apr-22 04:00N 18°42' W 065°48'610.7
2019-Apr-22 03:29N 18°43' W 065°54'610.4
2019-Apr-22 02:52N 18°43' W 066°01'410.7
2019-Apr-22 02:28N 18°40' W 066°04'1310.4
2019-Apr-22 01:15N 18°28' W 066°08'1 3.7
2019-Apr-22 01:00N 18°28' W 066°07'0 0.1
2019-Apr-22 00:29N 18°28' W 066°07'0 0.0
2019-Apr-21 23:58N 18°28' W 066°07'0 0.0
2019-Apr-21 23:28N 18°28' W 066°07'0 0.0
2019-Apr-21 22:58N 18°28' W 066°07'0 0.0
2019-Apr-21 22:28N 18°28' W 066°07'0 0.0
2019-Apr-21 22:00N 18°28' W 066°07'0 0.0
2019-Apr-21 21:30N 18°28' W 066°07'0 0.0
2019-Apr-21 21:00N 18°28' W 066°07'0 0.0
2019-Apr-21 20:30N 18°28' W 066°07'0 0.0
2019-Apr-21 20:00N 18°28' W 066°07'0 0.0
2019-Apr-21 19:29N 18°28' W 066°07'0 0.0
2019-Apr-21 18:59N 18°28' W 066°07'0 0.0
2019-Apr-21 18:29N 18°28' W 066°07'0 0.0
2019-Apr-21 17:59N 18°28' W 066°07'0 0.0
2019-Apr-21 17:29N 18°28' W 066°07'0 0.0
2019-Apr-21 16:58N 18°28' W 066°07'0 0.0
2019-Apr-21 16:28N 18°28' W 066°07'0 0.0
2019-Apr-21 15:58N 18°28' W 066°07'0 0.0
2019-Apr-21 15:28N 18°28' W 066°07'0 0.0
2019-Apr-21 15:00N 18°28' W 066°07'0 0.0
2019-Apr-21 14:30N 18°28' W 066°07'0 0.0
2019-Apr-21 14:00N 18°28' W 066°07'0 0.0
2019-Apr-21 13:30N 18°28' W 066°07'0 0.0
2019-Apr-21 13:00N 18°28' W 066°07'0 0.0
2019-Apr-21 12:29N 18°28' W 066°07'0 0.0
2019-Apr-21 11:59N 18°28' W 066°07'0 0.0
2019-Apr-21 11:29N 18°28' W 066°07'0 0.0
2019-Apr-21 10:59N 18°28' W 066°07'0 0.2
2019-Apr-21 10:30N 18°28' W 066°07'4 5.8
2019-Apr-21 09:50N 18°31' W 066°08'411.6
2019-Apr-21 09:30N 18°35' W 066°06'813.2
2019-Apr-21 08:54N 18°42' W 066°03'512.4
2019-Apr-21 08:30N 18°44' W 065°59'713.5
2019-Apr-21 08:00N 18°44' W 065°51'713.4
2019-Apr-21 07:30N 18°43' W 065°44'815.7
2019-Apr-21 07:01N 18°42' W 065°36'6339.6
2019-Apr-21 07:00N 18°36' W 065°36'917.7 090 / 221016.0 26.024.625.0
2019-Apr-21 06:30N 18°39' W 065°28'816.0
2019-Apr-21 06:00N 18°35' W 065°21'816.7
2019-Apr-21 05:31N 18°29' W 065°14'815.9
2019-Apr-21 05:00N 18°23' W 065°10'815.4
2019-Apr-21 04:30N 18°15' W 065°09'815.1
2019-Apr-21 04:00N 18°11' W 065°02'10704.6
2019-Apr-21 04:00N 18°06' W 064°54'4 7.4 090 / 281016.010.8 25.023.524.0
2019-Apr-21 03:31N 18°10' W 064°54'816.6
2019-Apr-21 03:00N 18°07' W 064°45'916.6
2019-Apr-21 02:29N 18°06' W 064°36'6016.3
2019-Apr-20 22:49N 18°02' W 063°33'616.9
2019-Apr-20 22:28N 18°02' W 063°27'1530.7
2019-Apr-20 22:00N 18°00' W 063°12'422.4 090 / 161016.010.8 26.024.626.0
2019-Apr-20 21:50N 18°01' W 063°16'816.8
2019-Apr-20 21:22N 18°00' W 063°07'411.2
2019-Apr-20 20:58N 18°01' W 063°03'0 0.0
2019-Apr-20 20:20N 18°01' W 063°03'0 0.0
2019-Apr-20 19:49N 18°01' W 063°03'0 0.0
2019-Apr-20 19:16N 18°01' W 063°03'0 0.0
2019-Apr-20 18:58N 18°01' W 063°03'0 0.0
2019-Apr-20 18:28N 18°01' W 063°03'0 0.0
2019-Apr-20 17:52N 18°01' W 063°03'0 0.0
2019-Apr-20 17:30N 18°01' W 063°03'0 0.0
2019-Apr-20 16:57N 18°01' W 063°03'0 0.0
2019-Apr-20 16:27N 18°01' W 063°03'0 0.0
2019-Apr-20 15:54N 18°01' W 063°03'0 0.0
2019-Apr-20 15:24N 18°01' W 063°03'0 0.0
2019-Apr-20 14:29N 18°01' W 063°03'0 0.0
2019-Apr-20 13:59N 18°01' W 063°03'0 0.0
2019-Apr-20 13:08N 18°01' W 063°03'0 0.0
2019-Apr-20 12:49N 18°01' W 063°03'0 0.0
2019-Apr-20 12:28N 18°01' W 063°03'0 0.0
2019-Apr-20 11:37N 18°01' W 063°03'0 0.0
2019-Apr-20 11:25N 18°01' W 063°03'0 0.0
2019-Apr-20 10:52N 18°01' W 063°03'0 0.6
2019-Apr-20 10:25N 18°00' W 063°03'3 5.3
2019-Apr-20 09:56N 18°00' W 063°06'4 7.3
2019-Apr-20 09:22N 18°01' W 063°10'4 7.3
2019-Apr-20 08:47N 18°01' W 063°14'6 8.5
2019-Apr-20 08:08N 18°01' W 063°20'4 9.6
2019-Apr-20 07:45N 18°01' W 063°24'3 9.6
2019-Apr-20 07:24N 18°03' W 063°27'410.7
2019-Apr-20 07:00N 18°00' W 063°24'1136.1 110 / 201016.0 26.023.125.0
2019-Apr-20 06:41N 18°06' W 063°34'510.0
2019-Apr-20 06:13N 18°09' W 063°38'7 7.4
2019-Apr-20 05:14N 18°04' W 063°44'210.5
2019-Apr-20 05:01N 18°02' W 063°44'1515.2
2019-Apr-20 04:00N 17°48' W 063°36'636.3 080 / 251016.010.8 25.023.524.0
2019-Apr-20 03:50N 17°53' W 063°38'710.2
2019-Apr-20 03:09N 17°53' W 063°31'510.5
2019-Apr-20 02:38N 17°52' W 063°25'110.3
2019-Apr-20 02:30N 17°52' W 063°24'5 9.9
2019-Apr-20 02:00N 17°50' W 063°19'710.3
2019-Apr-20 01:18N 17°46' W 063°13'610.5
2019-Apr-20 00:42N 17°42' W 063°08'311.2
2019-Apr-20 00:26N 17°39' W 063°07'511.1
2019-Apr-20 00:00N 17°35' W 063°07'611.5
2019-Apr-19 23:29N 17°29' W 063°06'510.5
2019-Apr-19 23:00N 17°24' W 063°03'712.0
2019-Apr-19 22:27N 17°20' W 062°58'511.8
2019-Apr-19 21:59N 17°16' W 062°54'912.1
2019-Apr-19 21:13N 17°16' W 062°44'5 1.1
2019-Apr-19 17:00N 17°12' W 062°42'2 0.4 110 / 121016.010.8 28.025.225.0
2019-Apr-19 10:53N 17°14' W 062°44'7415.2
2019-Apr-19 06:00N 16°06' W 062°12'9216.3 080 / 251016.010.8 25.023.525.0
2019-Apr-19 00:20N 14°43' W 061°31'617.3
2019-Apr-19 00:00N 14°38' W 061°28'917.4
2019-Apr-18 23:30N 14°30' W 061°24'817.0
2019-Apr-18 23:00N 14°22' W 061°20'816.6
2019-Apr-18 22:30N 14°16' W 061°15'816.7
2019-Apr-18 22:01N 14°10' W 061°09'1115.6
2019-Apr-18 21:17N 14°02' W 061°01'1 2.8
2019-Apr-18 20:45N 14°01' W 060°60'0 0.0
2019-Apr-18 17:32N 14°01' W 060°60'0 0.0
2019-Apr-18 17:11N 14°01' W 060°60'0 0.0
2019-Apr-18 16:19N 14°01' W 060°60'0 0.0
2019-Apr-18 13:51N 14°01' W 060°60'0 0.0
2019-Apr-18 12:45N 14°01' W 060°60'0 0.0
2019-Apr-18 12:23N 14°01' W 060°60'0 0.0
2019-Apr-18 11:56N 14°01' W 060°60'0 0.1
2019-Apr-18 11:26N 14°01' W 060°60'1 2.0
2019-Apr-18 10:55N 14°01' W 061°01'3 7.5
2019-Apr-18 10:30N 14°02' W 061°04'27 6.0
2019-Apr-18 06:00N 13°36' W 061°12'1611.0 080 / 101011.010.8 26.023.125.0
2019-Apr-18 04:31N 13°30' W 060°56'55 2.5
2019-Apr-17 07:00N 13°30' W 060°00'38 9.5 070 / 201017.0 26.023.125.0
2019-Apr-17 03:00N 14°00' W 060°24'1430.5 100 / 211013.010.8 26.024.625.0
2019-Apr-17 02:32N 14°09' W 060°35'611.0
2019-Apr-17 02:00N 14°12' W 060°40'1011.3
2019-Apr-17 01:07N 14°13' W 060°50'111.0
2019-Apr-17 01:00N 14°13' W 060°52'611.0
2019-Apr-17 00:30N 14°13' W 060°57'611.2
2019-Apr-17 00:00N 14°13' W 061°03'611.4
2019-Apr-16 23:30N 14°14' W 061°09'611.4
2019-Apr-16 23:00N 14°15' W 061°15'711.6
2019-Apr-16 22:26N 14°19' W 061°19'1513.8
2019-Apr-16 21:21N 14°31' W 061°29'615.6
2019-Apr-16 21:00N 14°35' W 061°33'1514.9
2019-Apr-16 19:59N 14°47' W 061°43'9 8.8
2019-Apr-16 19:00N 14°54' W 061°48'11314.1 100 / 231016.010.8 26.023.125.0
2019-Apr-16 11:00N 16°18' W 063°06'4112.0 090 / 121014.010.8 25.023.526.0
2019-Apr-16 07:36N 16°51' W 063°31'111.6
2019-Apr-16 07:29N 16°52' W 063°32'4212.0
2019-Apr-16 04:00N 17°24' W 064°00'4811.4 100 / 251015.010.8 26.023.124.0
2019-Apr-15 23:45N 18°03' W 064°31'311.8
2019-Apr-15 23:29N 18°04' W 064°34'611.9
2019-Apr-15 23:00N 18°06' W 064°39'611.9
2019-Apr-15 22:30N 18°09' W 064°45'612.1
2019-Apr-15 22:00N 18°12' W 064°50'611.6
2019-Apr-15 21:30N 18°15' W 064°55'4 6.9
2019-Apr-15 20:51N 18°20' W 064°56'0 0.0
2019-Apr-15 20:27N 18°20' W 064°56'0 0.0
2019-Apr-15 19:57N 18°20' W 064°56'0 0.0
2019-Apr-15 19:27N 18°20' W 064°56'0 0.0
2019-Apr-15 18:56N 18°20' W 064°56'0 0.0
2019-Apr-15 18:26N 18°20' W 064°56'0 0.0
2019-Apr-15 17:50N 18°20' W 064°56'0 0.0
2019-Apr-15 17:26N 18°20' W 064°56'0 0.0
2019-Apr-15 16:56N 18°20' W 064°56'0 0.0
2019-Apr-15 16:13N 18°20' W 064°56'0 0.0
2019-Apr-15 15:49N 18°20' W 064°56'0 0.0
2019-Apr-15 15:25N 18°20' W 064°56'0 0.0
2019-Apr-15 14:55N 18°20' W 064°56'0 0.0
2019-Apr-15 14:18N 18°20' W 064°56'0 0.0
2019-Apr-15 13:42N 18°20' W 064°56'0 0.0
2019-Apr-15 13:30N 18°20' W 064°56'0 0.0
2019-Apr-15 13:00N 18°20' W 064°56'0 0.0
2019-Apr-15 12:30N 18°20' W 064°56'0 0.0
2019-Apr-15 11:59N 18°20' W 064°56'0 0.0
2019-Apr-15 11:29N 18°20' W 064°56'0 0.0
2019-Apr-15 11:00N 18°20' W 064°56'0 0.6
2019-Apr-15 10:30N 18°20' W 064°56'3 6.3
2019-Apr-15 10:00N 18°17' W 064°57'4 8.9
2019-Apr-15 09:30N 18°17' W 065°01'5 9.5
2019-Apr-15 09:00N 18°18' W 065°06'5 9.7
2019-Apr-15 08:30N 18°21' W 065°10'510.7
2019-Apr-15 08:00N 18°26' W 065°12'510.3
2019-Apr-15 07:30N 18°31' W 065°13'510.3
2019-Apr-15 07:00N 18°36' W 065°15'510.4
2019-Apr-15 06:30N 18°38' W 065°20'510.7
2019-Apr-15 06:00N 18°39' W 065°26'510.8
2019-Apr-15 05:30N 18°40' W 065°31'611.0
2019-Apr-15 05:00N 18°41' W 065°37'611.2
2019-Apr-15 04:30N 18°41' W 065°43'611.1
2019-Apr-15 04:00N 18°42' W 065°49'148.8
2019-Apr-15 04:00N 18°42' W 065°48'612.6 100 / 221015.010.8 25.022.023.0
2019-Apr-15 03:30N 18°43' W 065°54'910.6
2019-Apr-15 02:42N 18°41' W 066°03'310.8
2019-Apr-15 02:26N 18°39' W 066°05'511.2
2019-Apr-15 02:00N 18°35' W 066°07'710.3
2019-Apr-15 01:21N 18°28' W 066°08'1 2.3
2019-Apr-15 00:58N 18°28' W 066°07'0 0.0
2019-Apr-15 00:28N 18°28' W 066°07'0 0.0
2019-Apr-15 00:00N 18°28' W 066°07'0 0.0
2019-Apr-14 23:30N 18°28' W 066°07'0 0.0
2019-Apr-14 23:00N 18°28' W 066°07'0 0.0
2019-Apr-14 22:30N 18°28' W 066°07'0 0.0
2019-Apr-14 22:00N 18°28' W 066°07'0 0.0
2019-Apr-14 21:29N 18°28' W 066°07'0 0.0
2019-Apr-14 20:59N 18°28' W 066°07'0 0.0
2019-Apr-14 20:29N 18°28' W 066°07'0 0.0
2019-Apr-14 19:59N 18°28' W 066°07'0 0.0
2019-Apr-14 19:29N 18°28' W 066°07'0 0.0
2019-Apr-14 18:58N 18°28' W 066°07'0 0.0
2019-Apr-14 18:28N 18°28' W 066°07'0 0.0
2019-Apr-14 17:58N 18°28' W 066°07'0 0.0
2019-Apr-14 17:28N 18°28' W 066°07'0 0.0
2019-Apr-14 17:00N 18°28' W 066°07'0 0.0
2019-Apr-14 16:30N 18°28' W 066°07'0 0.0
2019-Apr-14 16:00N 18°28' W 066°07'0 0.0
2019-Apr-14 15:30N 18°28' W 066°07'0 0.0
2019-Apr-14 15:00N 18°28' W 066°07'0 0.0
2019-Apr-14 14:29N 18°28' W 066°07'0 0.0
2019-Apr-14 13:59N 18°28' W 066°07'0 0.0
2019-Apr-14 13:29N 18°28' W 066°07'0 0.0
2019-Apr-14 12:59N 18°28' W 066°07'0 0.0
2019-Apr-14 12:29N 18°28' W 066°07'0 0.0
2019-Apr-14 11:58N 18°28' W 066°07'0 0.0
2019-Apr-14 11:28N 18°28' W 066°07'0 0.0
2019-Apr-14 10:58N 18°28' W 066°07'0 0.3
2019-Apr-14 10:30N 18°28' W 066°07'3 4.9
2019-Apr-14 10:00N 18°30' W 066°08'7 9.3
2019-Apr-14 09:15N 18°37' W 066°06'410.8
2019-Apr-14 08:55N 18°40' W 066°04'512.5
2019-Apr-14 08:30N 18°44' W 066°01'713.0
2019-Apr-14 08:00N 18°44' W 065°54'6585.9
2019-Apr-14 08:00N 18°42' W 065°48'1 1.5 110 / 221013.010.8 25.023.524.0
2019-Apr-14 07:29N 18°42' W 065°47'613.3
2019-Apr-14 07:00N 18°41' W 065°41'713.6
2019-Apr-14 06:30N 18°40' W 065°34'816.4
2019-Apr-14 06:00N 18°39' W 065°25'816.7
2019-Apr-14 05:31N 18°34' W 065°18'917.3
2019-Apr-14 05:00N 18°27' W 065°12'816.6
2019-Apr-14 04:31N 18°19' W 065°10'815.4
2019-Apr-14 04:01N 18°12' W 065°07'917.2
2019-Apr-14 03:31N 18°10' W 064°58'917.2
2019-Apr-14 03:00N 18°08' W 064°49'  
Track history (hours):
 
Tides and Currents Weather Stations Pressure Air Temp Water Temp Dewpoint Dewpoint Depression Visibility Wind Speed Wind Dir Waves Ship Positions

Fascination

Operator: Carnival Cruise Lines

Last reported at 2019-Apr-24 02:51 UTC. Time now 2019-Apr-24 22:26 UTC.
Position N 14°10' W 060°37'.

Type: Ship. MMSI: 309682000.

Date/timePositionNaut miles runAvg speedWind from/ knotsBaromVisibWave heightAir tempDewpointWater temp
2019-Apr-24 02:51N 14°10' W 060°37'3 9.4
2019-Apr-24 02:30N 14°12' W 060°40'510.0
2019-Apr-24 02:00N 14°13' W 060°45'5 9.4
2019-Apr-24 01:31N 14°13' W 060°50'5 9.7
2019-Apr-24 01:01N 14°13' W 060°55'5 9.7
2019-Apr-24 00:31N 14°13' W 060°60'5 9.9
2019-Apr-24 00:00N 14°13' W 061°05'510.5
2019-Apr-23 23:31N 14°14' W 061°10'610.2
2019-Apr-23 22:55N 14°16' W 061°16'511.0
2019-Apr-23 22:30N 14°20' W 061°19'611.2
2019-Apr-23 21:57N 14°24' W 061°23'711.3
2019-Apr-23 21:20N 14°30' W 061°28'411.0
2019-Apr-23 21:01N 14°32' W 061°30'510.9
2019-Apr-23 20:31N 14°37' W 061°34'610.9
2019-Apr-23 19:58N 14°41' W 061°38'810.9
2019-Apr-23 19:17N 14°47' W 061°43'829.1
2019-Apr-23 19:00N 14°42' W 061°36'17014.5 170 / 101014.0 27.024.124.0
2019-Apr-23 07:14N 16°51' W 063°32'314.3
2019-Apr-23 07:00N 16°48' W 063°30'5112.7 080 / 151010.010.8 26.023.125.0
2019-Apr-23 03:00N 17°30' W 064°00'4514.3 090 / 151013.010.8 25.022.023.0
2019-Apr-22 23:51N 18°03' W 064°32'512.2
2019-Apr-22 23:28N 18°05' W 064°36'612.8
2019-Apr-22 23:00N 18°08' W 064°42'612.7
2019-Apr-22 22:30N 18°10' W 064°48'612.4
2019-Apr-22 22:00N 18°13' W 064°54'6341.4
2019-Apr-22 22:00N 18°12' W 064°48'1020.7 110 / 121012.010.8 25.023.526.0
2019-Apr-22 21:30N 18°19' W 064°56'1 1.8
2019-Apr-22 20:57N 18°20' W 064°55'0 0.0
2019-Apr-22 20:27N 18°20' W 064°55'0 0.0
2019-Apr-22 19:57N 18°20' W 064°55'0 0.0
2019-Apr-22 19:27N 18°20' W 064°55'0 0.0
2019-Apr-22 18:56N 18°20' W 064°55'0 0.0
2019-Apr-22 18:26N 18°20' W 064°55'0 0.0
2019-Apr-22 17:56N 18°20' W 064°55'0 0.0
2019-Apr-22 17:20N 18°20' W 064°55'0 0.0
2019-Apr-22 16:55N 18°20' W 064°55'0 0.0
2019-Apr-22 16:19N 18°20' W 064°55'0 0.0
2019-Apr-22 15:55N 18°20' W 064°55'0 0.0
2019-Apr-22 15:25N 18°20' W 064°55'0 0.0
2019-Apr-22 14:55N 18°20' W 064°55'0 0.0
2019-Apr-22 14:18N 18°20' W 064°55'0 0.0
2019-Apr-22 14:00N 18°20' W 064°55'0 0.0
2019-Apr-22 13:12N 18°20' W 064°55'0 0.0
2019-Apr-22 13:00N 18°20' W 064°55'0 0.0
2019-Apr-22 12:24N 18°20' W 064°55'0 0.0
2019-Apr-22 11:53N 18°20' W 064°55'0 0.0
2019-Apr-22 11:29N 18°20' W 064°55'0 0.0
2019-Apr-22 10:59N 18°20' W 064°55'0 0.7
2019-Apr-22 10:30N 18°20' W 064°56'4 7.1
2019-Apr-22 10:00N 18°16' W 064°57'5 9.3
2019-Apr-22 09:30N 18°17' W 065°02'5 9.7
2019-Apr-22 09:00N 18°19' W 065°07'5 9.3
2019-Apr-22 08:30N 18°22' W 065°10'510.3
2019-Apr-22 08:00N 18°26' W 065°12'510.4
2019-Apr-22 07:30N 18°31' W 065°13'510.5
2019-Apr-22 07:00N 18°36' W 065°16'16716274.9
2019-Apr-22 07:00N 18°36' W 068°12'162335.7 090 / 201016.010.8 26.024.625.0
2019-Apr-22 06:30N 18°38' W 065°21'510.6
2019-Apr-22 06:00N 18°39' W 065°26'510.6
2019-Apr-22 05:30N 18°40' W 065°32'610.9
2019-Apr-22 05:00N 18°41' W 065°37'510.7
2019-Apr-22 04:30N 18°41' W 065°43'510.4
2019-Apr-22 04:00N 18°42' W 065°48'610.7
2019-Apr-22 03:29N 18°43' W 065°54'610.4
2019-Apr-22 02:52N 18°43' W 066°01'410.7
2019-Apr-22 02:28N 18°40' W 066°04'1310.4
2019-Apr-22 01:15N 18°28' W 066°08'1 3.7
2019-Apr-22 01:00N 18°28' W 066°07'0 0.1
2019-Apr-22 00:29N 18°28' W 066°07'0 0.0
2019-Apr-21 23:58N 18°28' W 066°07'0 0.0
2019-Apr-21 23:28N 18°28' W 066°07'0 0.0
2019-Apr-21 22:58N 18°28' W 066°07'0 0.0
2019-Apr-21 22:28N 18°28' W 066°07'0 0.0
2019-Apr-21 22:00N 18°28' W 066°07'0 0.0
2019-Apr-21 21:30N 18°28' W 066°07'0 0.0
2019-Apr-21 21:00N 18°28' W 066°07'0 0.0
2019-Apr-21 20:30N 18°28' W 066°07'0 0.0
2019-Apr-21 20:00N 18°28' W 066°07'0 0.0
2019-Apr-21 19:29N 18°28' W 066°07'0 0.0
2019-Apr-21 18:59N 18°28' W 066°07'0 0.0
2019-Apr-21 18:29N 18°28' W 066°07'0 0.0
2019-Apr-21 17:59N 18°28' W 066°07'0 0.0
2019-Apr-21 17:29N 18°28' W 066°07'0 0.0
2019-Apr-21 16:58N 18°28' W 066°07'0 0.0
2019-Apr-21 16:28N 18°28' W 066°07'0 0.0
2019-Apr-21 15:58N 18°28' W 066°07'0 0.0
2019-Apr-21 15:28N 18°28' W 066°07'0 0.0
2019-Apr-21 15:00N 18°28' W 066°07'0 0.0
2019-Apr-21 14:30N 18°28' W 066°07'0 0.0
2019-Apr-21 14:00N 18°28' W 066°07'0 0.0
2019-Apr-21 13:30N 18°28' W 066°07'0 0.0
2019-Apr-21 13:00N 18°28' W 066°07'0 0.0
2019-Apr-21 12:29N 18°28' W 066°07'0 0.0
2019-Apr-21 11:59N 18°28' W 066°07'0 0.0
2019-Apr-21 11:29N 18°28' W 066°07'0 0.0
2019-Apr-21 10:59N 18°28' W 066°07'0 0.2
2019-Apr-21 10:30N 18°28' W 066°07'4 5.8
2019-Apr-21 09:50N 18°31' W 066°08'411.6
2019-Apr-21 09:30N 18°35' W 066°06'813.2
2019-Apr-21 08:54N 18°42' W 066°03'512.4
2019-Apr-21 08:30N 18°44' W 065°59'713.5
2019-Apr-21 08:00N 18°44' W 065°51'713.4
2019-Apr-21 07:30N 18°43' W 065°44'815.7
2019-Apr-21 07:01N 18°42' W 065°36'6339.6
2019-Apr-21 07:00N 18°36' W 065°36'917.7 090 / 221016.0 26.024.625.0
2019-Apr-21 06:30N 18°39' W 065°28'816.0
2019-Apr-21 06:00N 18°35' W 065°21'816.7
2019-Apr-21 05:31N 18°29' W 065°14'815.9
2019-Apr-21 05:00N 18°23' W 065°10'815.4
2019-Apr-21 04:30N 18°15' W 065°09'815.1
2019-Apr-21 04:00N 18°11' W 065°02'10704.6
2019-Apr-21 04:00N 18°06' W 064°54'4 7.4 090 / 281016.010.8 25.023.524.0
2019-Apr-21 03:31N 18°10' W 064°54'816.6
2019-Apr-21 03:00N 18°07' W 064°45'916.6
2019-Apr-21 02:29N 18°06' W 064°36'6016.3
2019-Apr-20 22:49N 18°02' W 063°33'616.9
2019-Apr-20 22:28N 18°02' W 063°27'1530.7
2019-Apr-20 22:00N 18°00' W 063°12'422.4 090 / 161016.010.8 26.024.626.0
2019-Apr-20 21:50N 18°01' W 063°16'816.8
2019-Apr-20 21:22N 18°00' W 063°07'411.2
2019-Apr-20 20:58N 18°01' W 063°03'0 0.0
2019-Apr-20 20:20N 18°01' W 063°03'0 0.0
2019-Apr-20 19:49N 18°01' W 063°03'0 0.0
2019-Apr-20 19:16N 18°01' W 063°03'0 0.0
2019-Apr-20 18:58N 18°01' W 063°03'0 0.0
2019-Apr-20 18:28N 18°01' W 063°03'0 0.0
2019-Apr-20 17:52N 18°01' W 063°03'0 0.0
2019-Apr-20 17:30N 18°01' W 063°03'0 0.0
2019-Apr-20 16:57N 18°01' W 063°03'0 0.0
2019-Apr-20 16:27N 18°01' W 063°03'0 0.0
2019-Apr-20 15:54N 18°01' W 063°03'0 0.0
2019-Apr-20 15:24N 18°01' W 063°03'0 0.0
2019-Apr-20 14:29N 18°01' W 063°03'0 0.0
2019-Apr-20 13:59N 18°01' W 063°03'0 0.0
2019-Apr-20 13:08N 18°01' W 063°03'0 0.0
2019-Apr-20 12:49N 18°01' W 063°03'0 0.0
2019-Apr-20 12:28N 18°01' W 063°03'0 0.0
2019-Apr-20 11:37N 18°01' W 063°03'0 0.0
2019-Apr-20 11:25N 18°01' W 063°03'0 0.0
2019-Apr-20 10:52N 18°01' W 063°03'0 0.6
2019-Apr-20 10:25N 18°00' W 063°03'3 5.3
2019-Apr-20 09:56N 18°00' W 063°06'4 7.3
2019-Apr-20 09:22N 18°01' W 063°10'4 7.3
2019-Apr-20 08:47N 18°01' W 063°14'6 8.5
2019-Apr-20 08:08N 18°01' W 063°20'4 9.6
2019-Apr-20 07:45N 18°01' W 063°24'3 9.6
2019-Apr-20 07:24N 18°03' W 063°27'410.7
2019-Apr-20 07:00N 18°00' W 063°24'1136.1 110 / 201016.0 26.023.125.0
2019-Apr-20 06:41N 18°06' W 063°34'510.0
2019-Apr-20 06:13N 18°09' W 063°38'7 7.4
2019-Apr-20 05:14N 18°04' W 063°44'210.5
2019-Apr-20 05:01N 18°02' W 063°44'1515.2
2019-Apr-20 04:00N 17°48' W 063°36'636.3 080 / 251016.010.8 25.023.524.0
2019-Apr-20 03:50N 17°53' W 063°38'710.2
2019-Apr-20 03:09N 17°53' W 063°31'510.5
2019-Apr-20 02:38N 17°52' W 063°25'110.3
2019-Apr-20 02:30N 17°52' W 063°24'5 9.9
2019-Apr-20 02:00N 17°50' W 063°19'710.3
2019-Apr-20 01:18N 17°46' W 063°13'610.5
2019-Apr-20 00:42N 17°42' W 063°08'311.2
2019-Apr-20 00:26N 17°39' W 063°07'511.1
2019-Apr-20 00:00N 17°35' W 063°07'611.5
2019-Apr-19 23:29N 17°29' W 063°06'510.5
2019-Apr-19 23:00N 17°24' W 063°03'712.0
2019-Apr-19 22:27N 17°20' W 062°58'511.8
2019-Apr-19 21:59N 17°16' W 062°54'912.1
2019-Apr-19 21:13N 17°16' W 062°44'5 1.1
2019-Apr-19 17:00N 17°12' W 062°42'2 0.4 110 / 121016.010.8 28.025.225.0
2019-Apr-19 10:53N 17°14' W 062°44'7415.2
2019-Apr-19 06:00N 16°06' W 062°12'9216.3 080 / 251016.010.8 25.023.525.0
2019-Apr-19 00:20N 14°43' W 061°31'617.3
2019-Apr-19 00:00N 14°38' W 061°28'917.4
2019-Apr-18 23:30N 14°30' W 061°24'817.0
2019-Apr-18 23:00N 14°22' W 061°20'816.6
2019-Apr-18 22:30N 14°16' W 061°15'816.7
2019-Apr-18 22:01N 14°10' W 061°09'1115.6
2019-Apr-18 21:17N 14°02' W 061°01'1 2.8
2019-Apr-18 20:45N 14°01' W 060°60'0 0.0
2019-Apr-18 17:32N 14°01' W 060°60'0 0.0
2019-Apr-18 17:11N 14°01' W 060°60'0 0.0
2019-Apr-18 16:19N 14°01' W 060°60'0 0.0
2019-Apr-18 13:51N 14°01' W 060°60'0 0.0
2019-Apr-18 12:45N 14°01' W 060°60'0 0.0
2019-Apr-18 12:23N 14°01' W 060°60'0 0.0
2019-Apr-18 11:56N 14°01' W 060°60'0 0.1
2019-Apr-18 11:26N 14°01' W 060°60'1 2.0
2019-Apr-18 10:55N 14°01' W 061°01'3 7.5
2019-Apr-18 10:30N 14°02' W 061°04'27 6.0
2019-Apr-18 06:00N 13°36' W 061°12'1611.0 080 / 101011.010.8 26.023.125.0
2019-Apr-18 04:31N 13°30' W 060°56'55 2.5
2019-Apr-17 07:00N 13°30' W 060°00'38 9.5 070 / 201017.0 26.023.125.0
2019-Apr-17 03:00N 14°00' W 060°24'1430.5 100 / 211013.010.8 26.024.625.0
2019-Apr-17 02:32N 14°09' W 060°35'611.0
2019-Apr-17 02:00N 14°12' W 060°40'1011.3
2019-Apr-17 01:07N 14°13' W 060°50'111.0
2019-Apr-17 01:00N 14°13' W 060°52'611.0
2019-Apr-17 00:30N 14°13' W 060°57'611.2
2019-Apr-17 00:00N 14°13' W 061°03'611.4
2019-Apr-16 23:30N 14°14' W 061°09'611.4
2019-Apr-16 23:00N 14°15' W 061°15'711.6
2019-Apr-16 22:26N 14°19' W 061°19'1513.8
2019-Apr-16 21:21N 14°31' W 061°29'615.6
2019-Apr-16 21:00N 14°35' W 061°33'1514.9
2019-Apr-16 19:59N 14°47' W 061°43'9 8.8
2019-Apr-16 19:00N 14°54' W 061°48'11314.1 100 / 231016.010.8 26.023.125.0
2019-Apr-16 11:00N 16°18' W 063°06'4112.0 090 / 121014.010.8 25.023.526.0
2019-Apr-16 07:36N 16°51' W 063°31'111.6
2019-Apr-16 07:29N 16°52' W 063°32'4212.0
2019-Apr-16 04:00N 17°24' W 064°00'4811.4 100 / 251015.010.8 26.023.124.0
2019-Apr-15 23:45N 18°03' W 064°31'311.8
2019-Apr-15 23:29N 18°04' W 064°34'611.9
2019-Apr-15 23:00N 18°06' W 064°39'611.9
2019-Apr-15 22:30N 18°09' W 064°45'612.1
2019-Apr-15 22:00N 18°12' W 064°50'611.6
2019-Apr-15 21:30N 18°15' W 064°55'4 6.9
2019-Apr-15 20:51N 18°20' W 064°56'0 0.0
2019-Apr-15 20:27N 18°20' W 064°56'0 0.0
2019-Apr-15 19:57N 18°20' W 064°56'0 0.0
2019-Apr-15 19:27N 18°20' W 064°56'0 0.0
2019-Apr-15 18:56N 18°20' W 064°56'0 0.0
2019-Apr-15 18:26N 18°20' W 064°56'0 0.0
2019-Apr-15 17:50N 18°20' W 064°56'0 0.0
2019-Apr-15 17:26N 18°20' W 064°56'0 0.0
2019-Apr-15 16:56N 18°20' W 064°56'0 0.0
2019-Apr-15 16:13N 18°20' W 064°56'0 0.0
2019-Apr-15 15:49N 18°20' W 064°56'0 0.0
2019-Apr-15 15:25N 18°20' W 064°56'0 0.0
2019-Apr-15 14:55N 18°20' W 064°56'0 0.0
2019-Apr-15 14:18N 18°20' W 064°56'0 0.0
2019-Apr-15 13:42N 18°20' W 064°56'0 0.0
2019-Apr-15 13:30N 18°20' W 064°56'0 0.0
2019-Apr-15 13:00N 18°20' W 064°56'0 0.0
2019-Apr-15 12:30N 18°20' W 064°56'0 0.0
2019-Apr-15 11:59N 18°20' W 064°56'0 0.0
2019-Apr-15 11:29N 18°20' W 064°56'0 0.0
2019-Apr-15 11:00N 18°20' W 064°56'0 0.6
2019-Apr-15 10:30N 18°20' W 064°56'3 6.3
2019-Apr-15 10:00N 18°17' W 064°57'4 8.9
2019-Apr-15 09:30N 18°17' W 065°01'5 9.5
2019-Apr-15 09:00N 18°18' W 065°06'5 9.7
2019-Apr-15 08:30N 18°21' W 065°10'510.7
2019-Apr-15 08:00N 18°26' W 065°12'510.3
2019-Apr-15 07:30N 18°31' W 065°13'510.3
2019-Apr-15 07:00N 18°36' W 065°15'510.4
2019-Apr-15 06:30N 18°38' W 065°20'510.7
2019-Apr-15 06:00N 18°39' W 065°26'510.8
2019-Apr-15 05:30N 18°40' W 065°31'611.0
2019-Apr-15 05:00N 18°41' W 065°37'611.2
2019-Apr-15 04:30N 18°41' W 065°43'611.1
2019-Apr-15 04:00N 18°42' W 065°49'148.8
2019-Apr-15 04:00N 18°42' W 065°48'612.6 100 / 221015.010.8 25.022.023.0
2019-Apr-15 03:30N 18°43' W 065°54'910.6
2019-Apr-15 02:42N 18°41' W 066°03'310.8
2019-Apr-15 02:26N 18°39' W 066°05'511.2
2019-Apr-15 02:00N 18°35' W 066°07'710.3
2019-Apr-15 01:21N 18°28' W 066°08'1 2.3
2019-Apr-15 00:58N 18°28' W 066°07'0 0.0
2019-Apr-15 00:28N 18°28' W 066°07'0 0.0
2019-Apr-15 00:00N 18°28' W 066°07'0 0.0
2019-Apr-14 23:30N 18°28' W 066°07'0 0.0
2019-Apr-14 23:00N 18°28' W 066°07'0 0.0
2019-Apr-14 22:30N 18°28' W 066°07'0 0.0
2019-Apr-14 22:00N 18°28' W 066°07'0 0.0
2019-Apr-14 21:29N 18°28' W 066°07'0 0.0
2019-Apr-14 20:59N 18°28' W 066°07'0 0.0
2019-Apr-14 20:29N 18°28' W 066°07'0 0.0
2019-Apr-14 19:59N 18°28' W 066°07'0 0.0
2019-Apr-14 19:29N 18°28' W 066°07'0 0.0
2019-Apr-14 18:58N 18°28' W 066°07'0 0.0
2019-Apr-14 18:28N 18°28' W 066°07'0 0.0
2019-Apr-14 17:58N 18°28' W 066°07'0 0.0
2019-Apr-14 17:28N 18°28' W 066°07'0 0.0
2019-Apr-14 17:00N 18°28' W 066°07'0 0.0
2019-Apr-14 16:30N 18°28' W 066°07'0 0.0
2019-Apr-14 16:00N 18°28' W 066°07'0 0.0
2019-Apr-14 15:30N 18°28' W 066°07'0 0.0
2019-Apr-14 15:00N 18°28' W 066°07'0 0.0
2019-Apr-14 14:29N 18°28' W 066°07'0 0.0
2019-Apr-14 13:59N 18°28' W 066°07'0 0.0
2019-Apr-14 13:29N 18°28' W 066°07'0 0.0
2019-Apr-14 12:59N 18°28' W 066°07'0 0.0
2019-Apr-14 12:29N 18°28' W 066°07'0 0.0
2019-Apr-14 11:58N 18°28' W 066°07'0 0.0
2019-Apr-14 11:28N 18°28' W 066°07'0 0.0
2019-Apr-14 10:58N 18°28' W 066°07'0 0.3
2019-Apr-14 10:30N 18°28' W 066°07'3 4.9
2019-Apr-14 10:00N 18°30' W 066°08'7 9.3
2019-Apr-14 09:15N 18°37' W 066°06'410.8
2019-Apr-14 08:55N 18°40' W 066°04'512.5
2019-Apr-14 08:30N 18°44' W 066°01'713.0
2019-Apr-14 08:00N 18°44' W 065°54'6585.9
2019-Apr-14 08:00N 18°42' W 065°48'1 1.5 110 / 221013.010.8 25.023.524.0
2019-Apr-14 07:29N 18°42' W 065°47'613.3
2019-Apr-14 07:00N 18°41' W 065°41'713.6
2019-Apr-14 06:30N 18°40' W 065°34'816.4
2019-Apr-14 06:00N 18°39' W 065°25'816.7
2019-Apr-14 05:31N 18°34' W 065°18'917.3
2019-Apr-14 05:00N 18°27' W 065°12'816.6
2019-Apr-14 04:31N 18°19' W 065°10'815.4
2019-Apr-14 04:01N 18°12' W 065°07'917.2
2019-Apr-14 03:31N 18°10' W 064°58'917.2
2019-Apr-14 03:00N 18°08' W 064°49'  

Dump ship's entire track history